Time;durP1;ratioP1;P1;durP2;ratioP2;P2;SDS_P1;SDS_P2;PMS_P1;PMS_P2;Temp;Humidity;BMP_temperature;BMP_pressure;BME280_temperature;BME280_humidity;BME280_pressure;Samples;Min_cycle;Max_cycle;Signal;HPM_P1;HPM_P2
2022/05/07 00:01:03;;;;;;;2.65;2.40;;;10.50;99.90;;;;;;6244576;23;20012;-86
2022/05/07 00:03:29;;;;;;;3.95;2.20;;;10.70;99.90;;;;;;6246430;23;20079;-86
2022/05/07 00:05:54;;;;;;;7.80;2.63;;;10.80;99.90;;;;;;6245908;22;20030;-85
2022/05/07 00:08:20;;;;;;;4.07;2.17;;;10.70;99.90;;;;;;6221277;23;20015;-88
2022/05/07 00:10:46;;;;;;;3.08;2.22;;;10.70;99.90;;;;;;6245851;23;20004;-86
2022/05/07 00:13:11;;;;;;;7.65;2.30;;;10.80;99.90;;;;;;6246122;23;20038;-87
2022/05/07 00:15:37;;;;;;;3.03;2.28;;;10.70;99.90;;;;;;6247991;22;20008;-87
2022/05/07 00:18:07;;;;;;;3.72;2.00;;;10.70;99.90;;;;;;6247830;23;20381;-87
2022/05/07 00:20:33;;;;;;;4.28;2.22;;;10.60;99.90;;;;;;6220679;23;20082;-87
2022/05/07 00:23:00;;;;;;;2.28;2.05;;;10.50;99.90;;;;;;6247426;23;20030;-88
2022/05/07 00:25:27;;;;;;;3.33;2.30;;;10.50;99.90;;;;;;6245403;23;20019;-88
2022/05/07 00:27:53;;;;;;;3.70;2.28;;;10.50;99.90;;;;;;6246861;23;20130;-89
2022/05/07 00:30:19;;;;;;;3.30;2.30;;;10.40;99.90;;;;;;6246999;23;20016;-89
2022/05/07 00:32:44;;;;;;;7.18;2.42;;;10.40;99.90;;;;;;6246978;23;20079;-88
2022/05/07 00:35:10;;;;;;;4.97;2.50;;;10.50;99.90;;;;;;6246313;22;20083;-87
2022/05/07 00:37:37;;;;;;;3.28;2.20;;;10.40;99.90;;;;;;6246697;23;20024;-89
2022/05/07 00:40:04;;;;;;;3.17;2.35;;;10.40;99.90;;;;;;6246306;23;20027;-87
2022/05/07 00:42:29;;;;;;;5.15;2.55;;;10.30;99.90;;;;;;6246442;23;20008;-87
2022/05/07 00:44:55;;;;;;;3.45;2.30;;;10.30;99.90;;;;;;6245705;22;20131;-88
2022/05/07 00:47:31;;;;;;;5.20;3.05;;;10.20;99.90;;;;;;6245783;23;20457;-88
2022/05/07 00:51:33;;;;;;;5.47;2.40;;;10.20;99.90;;;;;;6246508;23;20369;-89
2022/05/07 00:52:46;;;;;;;4.82;2.47;;;10.20;99.90;;;;;;6245975;23;20446;-89
2022/05/07 00:55:12;;;;;;;7.05;2.28;;;10.20;99.90;;;;;;6246054;22;20023;-89
2022/05/07 00:57:38;;;;;;;3.97;2.70;;;10.20;99.90;;;;;;6246215;23;20000;-87
2022/05/07 01:00:05;;;;;;;3.55;2.38;;;10.30;99.90;;;;;;6245808;23;20004;-87
2022/05/07 01:02:31;;;;;;;3.47;2.90;;;10.30;99.90;;;;;;6245713;23;20011;-88
2022/05/07 01:04:57;;;;;;;2.80;2.35;;;10.20;99.90;;;;;;6243780;23;20004;-88
2022/05/07 01:07:22;;;;;;;5.03;2.70;;;10.00;99.90;;;;;;6243784;23;20011;-88
2022/05/07 01:09:49;;;;;;;5.82;2.22;;;10.00;99.90;;;;;;6245791;23;20117;-88
2022/05/07 01:12:16;;;;;;;5.13;2.45;;;10.20;99.90;;;;;;6250947;23;20000;-88
2022/05/07 01:14:41;;;;;;;4.25;2.80;;;10.10;99.90;;;;;;6265788;22;20085;-88
2022/05/07 01:17:07;;;;;;;4.25;2.13;;;10.10;99.90;;;;;;6261813;23;20004;-88
2022/05/07 01:19:33;;;;;;;7.28;2.25;;;10.10;99.90;;;;;;6227597;23;20032;-88
2022/05/07 01:21:59;;;;;;;6.55;2.03;;;10.10;99.90;;;;;;6231003;23;20087;-86
2022/05/07 01:24:25;;;;;;;6.60;2.75;;;10.00;99.90;;;;;;6264930;22;20023;-85
2022/05/07 01:26:51;;;;;;;4.20;2.30;;;10.00;99.90;;;;;;6264042;23;20004;-86
2022/05/07 01:29:16;;;;;;;7.55;2.40;;;9.80;99.90;;;;;;6246062;23;20003;-86
2022/05/07 01:31:42;;;;;;;4.60;2.47;;;9.90;99.90;;;;;;6244862;23;19997;-86
2022/05/07 01:34:07;;;;;;;4.35;2.60;;;10.00;99.90;;;;;;6243422;22;20004;-87
2022/05/07 01:36:33;;;;;;;3.58;2.70;;;10.00;99.90;;;;;;6243774;23;20398;-87
2022/05/07 01:38:59;;;;;;;7.10;2.60;;;9.80;99.90;;;;;;6213261;23;20001;-87
2022/05/07 01:41:24;;;;;;;8.88;2.58;;;9.80;99.90;;;;;;6218083;23;20019;-86
2022/05/07 01:43:50;;;;;;;4.70;2.40;;;9.70;99.90;;;;;;6243637;23;20005;-86
2022/05/07 01:49:00;;;;;;;4.20;2.53;;;9.60;99.90;;;;;;6245147;23;20035;-87
2022/05/07 01:51:26;;;;;;;4.60;2.72;;;9.70;99.90;;;;;;6252302;23;20450;-88
2022/05/07 01:53:51;;;;;;;4.93;2.75;;;9.70;99.90;;;;;;6247977;22;20004;-86
2022/05/07 01:56:18;;;;;;;3.83;2.58;;;9.80;99.90;;;;;;6245421;23;20330;-88
2022/05/07 01:58:45;;;;;;;3.65;2.95;;;9.80;99.90;;;;;;6245108;23;20004;-88
2022/05/07 02:01:11;;;;;;;5.00;2.95;;;9.80;99.90;;;;;;6245464;23;20449;-88
2022/05/07 02:03:38;;;;;;;9.20;3.20;;;9.80;99.90;;;;;;6245864;23;20004;-88
2022/05/07 02:06:04;;;;;;;3.80;3.05;;;9.80;99.90;;;;;;6247068;22;20022;-88
2022/05/07 02:08:29;;;;;;;4.88;3.00;;;9.70;99.90;;;;;;6245168;23;20365;-86
2022/05/07 02:10:59;;;;;;;6.70;2.97;;;9.70;99.90;;;;;;6245236;23;20003;-86
2022/05/07 02:13:24;;;;;;;6.20;2.85;;;9.70;99.90;;;;;;6243762;23;20000;-86
2022/05/07 02:15:50;;;;;;;5.50;2.88;;;9.70;99.90;;;;;;6244957;22;20016;-87
2022/05/07 02:18:16;;;;;;;5.15;2.95;;;9.70;99.90;;;;;;6242979;23;20030;-87
2022/05/07 02:20:41;;;;;;;3.42;3.03;;;9.60;99.90;;;;;;6245117;23;20450;-85
2022/05/07 02:23:07;;;;;;;6.90;3.25;;;9.60;99.90;;;;;;6245251;23;20008;-85
2022/05/07 02:25:32;;;;;;;4.22;3.15;;;9.60;99.90;;;;;;6244782;22;20457;-87
2022/05/07 02:27:58;;;;;;;7.07;3.75;;;9.50;99.90;;;;;;6245119;23;20000;-87
2022/05/07 02:30:24;;;;;;;3.20;2.33;;;9.50;99.90;;;;;;6243631;23;20446;-87
2022/05/07 02:32:49;;;;;;;3.03;2.47;;;9.60;99.90;;;;;;6243192;23;20014;-87
2022/05/07 02:35:15;;;;;;;4.90;4.03;;;9.60;99.90;;;;;;6245828;22;20004;-87
2022/05/07 02:37:41;;;;;;;4.03;2.53;;;9.60;99.90;;;;;;6246800;23;20042;-87
2022/05/07 02:40:08;;;;;;;3.22;2.50;;;9.60;99.90;;;;;;6245127;23;20008;-87
2022/05/07 02:42:33;;;;;;;3.95;2.67;;;9.50;99.90;;;;;;6245017;23;20004;-86
2022/05/07 02:45:01;;;;;;;2.55;2.28;;;9.50;99.90;;;;;;6243147;23;20015;-87
2022/05/07 02:47:26;;;;;;;5.90;2.25;;;9.40;99.90;;;;;;6245415;23;20027;-86
2022/05/07 02:49:52;;;;;;;3.67;2.40;;;9.40;99.90;;;;;;6244921;23;20431;-86
2022/05/07 02:52:18;;;;;;;4.57;2.58;;;9.40;99.90;;;;;;6245157;23;20377;-87
2022/05/07 02:54:43;;;;;;;3.65;2.70;;;9.40;99.90;;;;;;6245035;22;20026;-88
2022/05/07 02:57:09;;;;;;;5.65;2.20;;;9.40;99.90;;;;;;6245070;23;20090;-88
2022/05/07 02:59:34;;;;;;;4.53;2.53;;;9.40;99.90;;;;;;6243476;23;20664;-86
2022/05/07 03:02:00;;;;;;;6.07;2.50;;;9.40;99.90;;;;;;6243466;23;20016;-88
2022/05/07 03:04:26;;;;;;;4.18;2.30;;;9.30;99.90;;;;;;6245066;22;20000;-86
2022/05/07 03:06:52;;;;;;;4.22;2.42;;;9.30;99.90;;;;;;6245005;23;20008;-87
2022/05/07 03:09:18;;;;;;;3.28;2.10;;;9.30;99.90;;;;;;6216550;23;20062;-86
2022/05/07 03:11:44;;;;;;;2.92;2.17;;;9.20;99.90;;;;;;6244785;23;19996;-87
2022/05/07 03:14:09;;;;;;;2.75;2.45;;;9.20;99.90;;;;;;6243345;22;20000;-86
2022/05/07 03:16:35;;;;;;;6.22;2.53;;;9.20;99.90;;;;;;6207746;22;20013;-91
2022/05/07 03:19:02;;;;;;;2.63;2.42;;;9.20;99.90;;;;;;6185387;23;20450;-90
2022/05/07 03:21:28;;;;;;;4.75;2.78;;;9.20;99.90;;;;;;6183458;23;20562;-91
2022/05/07 03:23:54;;;;;;;3.90;2.67;;;9.20;99.90;;;;;;6183516;23;20028;-91
2022/05/07 03:26:22;;;;;;;3.95;2.58;;;9.10;99.90;;;;;;6178296;23;20422;-91
2022/05/07 03:28:48;;;;;;;8.45;3.40;;;9.10;99.90;;;;;;6155451;23;20459;-90
2022/05/07 03:31:13;;;;;;;2.50;2.30;;;9.00;99.90;;;;;;6155364;23;20001;-91
2022/05/07 03:33:39;;;;;;;4.32;2.60;;;8.90;99.90;;;;;;6155757;23;20005;-91
2022/05/07 03:36:05;;;;;;;4.10;2.85;;;8.90;99.90;;;;;;6155467;23;20006;-89
2022/05/07 03:38:31;;;;;;;3.42;2.63;;;8.80;99.90;;;;;;6155454;23;20006;-90
2022/05/07 03:40:57;;;;;;;3.63;2.65;;;8.80;99.90;;;;;;6155367;23;20448;-91
2022/05/07 03:43:23;;;;;;;3.50;2.72;;;8.80;99.90;;;;;;6155951;23;20021;-90
2022/05/07 03:45:48;;;;;;;4.50;2.70;;;8.80;99.90;;;;;;6156887;23;20321;-90
2022/05/07 03:48:14;;;;;;;4.68;2.70;;;8.80;99.90;;;;;;6154224;23;20005;-91
2022/05/07 03:50:40;;;;;;;3.65;2.72;;;8.80;99.90;;;;;;6155233;23;20004;-91
2022/05/07 03:55:49;;;;;;;3.33;2.72;;;8.70;99.90;;;;;;6155636;23;20013;-91
2022/05/07 03:58:16;;;;;;;4.35;2.90;;;8.60;99.90;;;;;;6153585;23;20010;-90
2022/05/07 04:00:45;;;;;;;4.22;3.38;;;8.60;99.90;;;;;;6154988;23;20436;-90
2022/05/07 04:03:12;;;;;;;7.10;2.83;;;8.70;99.90;;;;;;6153706;23;20009;-90
2022/05/07 04:05:37;;;;;;;5.03;2.63;;;8.60;99.90;;;;;;6153473;23;20009;-90
2022/05/07 04:08:03;;;;;;;4.45;2.97;;;8.60;99.90;;;;;;6153315;23;20388;-91
2022/05/07 04:10:29;;;;;;;6.65;3.42;;;8.60;99.90;;;;;;6153375;23;20001;-91
2022/05/07 04:12:54;;;;;;;4.80;3.10;;;8.60;99.90;;;;;;6153585;23;20348;-90
2022/05/07 04:15:21;;;;;;;4.55;2.85;;;8.60;99.90;;;;;;6155011;23;20001;-91
2022/05/07 04:17:47;;;;;;;4.47;3.10;;;8.60;99.90;;;;;;6153034;23;20014;-91
2022/05/07 04:20:13;;;;;;;6.43;3.22;;;8.50;99.90;;;;;;6155755;23;20340;-91
2022/05/07 04:22:39;;;;;;;4.95;3.20;;;8.50;99.90;;;;;;6157788;23;20001;-90
2022/05/07 04:25:06;;;;;;;4.07;3.00;;;8.40;99.90;;;;;;6157368;23;20054;-91
2022/05/07 04:27:32;;;;;;;8.63;2.80;;;8.60;99.90;;;;;;6157308;23;20005;-88
2022/05/07 04:29:58;;;;;;;6.82;2.70;;;8.60;99.90;;;;;;6155962;23;20013;-88
2022/05/07 04:32:24;;;;;;;7.30;2.97;;;8.70;99.90;;;;;;6154966;23;20008;-88
2022/05/07 04:34:50;;;;;;;4.78;2.95;;;8.60;99.90;;;;;;6155947;23;20001;-88
2022/05/07 04:37:16;;;;;;;3.50;2.33;;;8.70;99.90;;;;;;6154699;23;20037;-90
2022/05/07 04:39:41;;;;;;;4.75;2.92;;;8.70;99.90;;;;;;6154363;23;20025;-90
2022/05/07 04:42:10;;;;;;;5.95;2.97;;;8.70;99.90;;;;;;6155108;23;20249;-90
2022/05/07 04:44:47;;;;;;;7.50;2.50;;;8.70;99.90;;;;;;6154522;23;20005;-91
2022/05/07 04:47:13;;;;;;;5.68;3.20;;;8.70;99.90;;;;;;6156374;23;20016;-90
2022/05/07 04:49:41;;;;;;;6.68;3.05;;;8.70;99.90;;;;;;6154102;23;20419;-89
2022/05/07 04:52:17;;;;;;;3.38;2.90;;;8.80;99.90;;;;;;6154266;23;20443;-90
2022/05/07 04:54:51;;;;;;;4.15;3.00;;;8.70;99.90;;;;;;6156547;23;19998;-90
2022/05/07 04:57:28;;;;;;;6.28;3.03;;;8.80;99.90;;;;;;6155966;23;20009;-89
2022/05/07 04:59:54;;;;;;;5.65;3.38;;;8.90;99.90;;;;;;6153537;23;20013;-90
2022/05/07 05:02:20;;;;;;;4.63;3.20;;;8.90;99.90;;;;;;6154514;23;20065;-90
2022/05/07 05:04:45;;;;;;;4.68;3.60;;;9.00;99.90;;;;;;6156166;23;20509;-90
2022/05/07 05:07:12;;;;;;;4.03;3.63;;;9.00;99.90;;;;;;6154375;23;20506;-90
2022/05/07 05:09:37;;;;;;;4.78;3.13;;;9.10;99.90;;;;;;6154568;23;20002;-89
2022/05/07 05:12:03;;;;;;;9.02;3.42;;;9.10;99.90;;;;;;6179235;23;19998;-90
2022/05/07 05:17:21;;;;;;;7.57;3.35;;;9.20;99.90;;;;;;6155599;23;20061;-90
2022/05/07 05:19:46;;;;;;;5.75;3.70;;;9.30;99.90;;;;;;6154768;23;20482;-88
2022/05/07 05:22:12;;;;;;;4.18;3.47;;;9.30;99.90;;;;;;6156256;23;20020;-88
2022/05/07 05:24:37;;;;;;;3.92;3.45;;;9.40;99.90;;;;;;6154464;23;20435;-88
2022/05/07 05:27:03;;;;;;;5.90;4.28;;;9.40;99.90;;;;;;6156297;23;20028;-89
2022/05/07 05:29:29;;;;;;;5.13;3.70;;;9.50;99.90;;;;;;6154765;23;20029;-89
2022/05/07 05:31:55;;;;;;;4.97;3.90;;;9.60;99.90;;;;;;6167242;23;20044;-89
2022/05/07 05:34:20;;;;;;;6.50;4.07;;;9.60;99.90;;;;;;6183614;23;20028;-89
2022/05/07 05:36:46;;;;;;;4.28;3.75;;;9.60;99.90;;;;;;6161576;23;20015;-89
2022/05/07 05:39:12;;;;;;;10.77;4.20;;;9.70;99.90;;;;;;6154752;23;20029;-88
2022/05/07 05:41:41;;;;;;;5.22;3.95;;;9.80;99.90;;;;;;6154464;23;20407;-89
2022/05/07 05:44:06;;;;;;;6.43;4.50;;;9.90;99.90;;;;;;6155649;23;20024;-89
2022/05/07 05:46:32;;;;;;;6.80;4.20;;;9.90;99.90;;;;;;6156120;23;20010;-89
2022/05/07 05:48:58;;;;;;;6.03;3.95;;;10.00;99.90;;;;;;6155501;23;20010;-89
2022/05/07 05:51:23;;;;;;;9.02;4.65;;;10.00;99.90;;;;;;6155732;23;20001;-90
2022/05/07 05:53:49;;;;;;;8.50;4.78;;;10.10;99.90;;;;;;6156201;23;20472;-88
2022/05/07 05:56:15;;;;;;;8.05;4.47;;;10.10;99.90;;;;;;6155794;23;20036;-89
2022/05/07 05:58:40;;;;;;;9.35;4.70;;;10.20;99.90;;;;;;6156026;23;20029;-89
2022/05/07 06:01:07;;;;;;;6.78;4.50;;;10.30;99.90;;;;;;6156014;23;20001;-88
2022/05/07 06:03:33;;;;;;;4.85;3.90;;;10.40;99.90;;;;;;6153685;23;20064;-87
2022/05/07 06:06:00;;;;;;;8.60;3.95;;;10.50;99.90;;;;;;6155746;23;20429;-88
2022/05/07 06:08:26;;;;;;;5.90;4.05;;;10.60;99.90;;;;;;6154446;23;20010;-88
2022/05/07 06:10:54;;;;;;;9.55;3.75;;;10.70;99.90;;;;;;6155857;23;20076;-89
2022/05/07 06:13:19;;;;;;;6.80;3.95;;;10.80;99.90;;;;;;6156365;23;20056;-89
2022/05/07 06:15:49;;;;;;;5.80;3.88;;;10.90;99.90;;;;;;6154435;23;20379;-89
2022/05/07 06:18:15;;;;;;;5.30;4.35;;;11.00;99.90;;;;;;6156651;23;20008;-88
2022/05/07 06:20:41;;;;;;;5.68;3.88;;;11.10;99.90;;;;;;6156449;23;20382;-86
2022/05/07 06:23:07;;;;;;;5.80;3.58;;;11.20;99.90;;;;;;6157444;23;20012;-86
2022/05/07 06:28:16;;;;;;;9.65;3.63;;;11.40;99.90;;;;;;6157247;23;20016;-86
2022/05/07 06:30:42;;;;;;;5.78;3.22;;;11.50;99.90;;;;;;6154689;23;20380;-86
2022/05/07 06:33:08;;;;;;;5.22;3.85;;;11.60;99.90;;;;;;6154689;23;20097;-86
2022/05/07 06:35:34;;;;;;;6.22;3.15;;;11.70;99.90;;;;;;6154504;23;20396;-86
2022/05/07 06:38:00;;;;;;;4.13;3.28;;;11.80;99.90;;;;;;6154138;23;20088;-86
2022/05/07 06:40:27;;;;;;;5.07;3.25;;;11.90;99.90;;;;;;6155593;23;20032;-86
2022/05/07 06:42:53;;;;;;;8.43;3.10;;;12.00;99.90;;;;;;6155957;23;20077;-86
2022/05/07 06:45:19;;;;;;;5.22;2.67;;;12.10;99.90;;;;;;6153555;23;20080;-86
2022/05/07 06:47:45;;;;;;;3.65;2.50;;;12.20;99.90;;;;;;6153531;23;20019;-86
2022/05/07 06:50:10;;;;;;;3.72;2.75;;;12.40;99.90;;;;;;6153214;23;20056;-86
2022/05/07 06:52:44;;;;;;;3.03;2.25;;;12.50;99.90;;;;;;6153660;23;20010;-86
2022/05/07 06:55:20;;;;;;;2.58;2.30;;;12.60;99.90;;;;;;6153636;23;20097;-85
2022/05/07 06:57:46;;;;;;;4.32;2.15;;;12.80;99.90;;;;;;6153306;23;20006;-86
2022/05/07 07:00:14;;;;;;;3.13;2.40;;;13.00;99.90;;;;;;6152857;23;20009;-85
2022/05/07 07:02:40;;;;;;;2.95;2.30;;;13.20;99.90;;;;;;6154508;23;20014;-88
2022/05/07 07:05:06;;;;;;;5.53;1.85;;;13.40;99.90;;;;;;6153125;23;20080;-87
2022/05/07 07:07:33;;;;;;;4.03;1.77;;;13.40;99.90;;;;;;6154190;23;20005;-87
2022/05/07 07:09:59;;;;;;;2.88;2.00;;;13.60;99.90;;;;;;6154882;23;20080;-87
2022/05/07 07:12:25;;;;;;;3.08;2.00;;;13.70;99.90;;;;;;6154221;23;20040;-87
2022/05/07 07:14:50;;;;;;;3.53;1.77;;;13.80;99.90;;;;;;6153039;23;20006;-87
2022/05/07 07:17:17;;;;;;;2.78;1.50;;;13.90;99.90;;;;;;6152579;23;20492;-85
2022/05/07 07:19:46;;;;;;;7.22;2.17;;;14.10;98.40;;;;;;6154170;23;20490;-86
2022/05/07 07:22:13;;;;;;;3.60;1.48;;;14.20;95.10;;;;;;6152512;23;20384;-87
2022/05/07 07:24:39;;;;;;;4.15;1.92;;;14.40;93.00;;;;;;6152829;23;20006;-86
2022/05/07 07:27:05;;;;;;;1.70;1.50;;;14.40;92.40;;;;;;6154339;23;20020;-85
2022/05/07 07:29:31;;;;;;;2.35;1.52;;;14.60;91.00;;;;;;6152532;23;20002;-84
2022/05/07 07:31:56;;;;;;;4.63;1.60;;;14.80;91.30;;;;;;6154179;23;20012;-85
2022/05/07 07:34:22;;;;;;;1.75;1.25;;;14.90;89.10;;;;;;6154788;23;20002;-87
2022/05/07 07:36:52;;;;;;;2.28;1.60;;;15.10;87.80;;;;;;6155807;23;20392;-86
2022/05/07 07:39:19;;;;;;;4.90;1.38;;;15.20;86.90;;;;;;6156638;23;20065;-86
2022/05/07 07:41:45;;;;;;;2.53;1.58;;;15.30;84.90;;;;;;6153928;23;20012;-86
2022/05/07 07:44:11;;;;;;;4.60;1.30;;;15.40;85.80;;;;;;6156012;23;20379;-86
2022/05/07 07:49:25;;;;;;;4.20;1.40;;;15.50;85.00;;;;;;6156055;23;20056;-85
2022/05/07 07:51:51;;;;;;;2.90;1.20;;;15.60;83.10;;;;;;6155428;23;20006;-85
2022/05/07 07:54:16;;;;;;;1.80;1.42;;;15.70;81.00;;;;;;6155029;23;20012;-85
2022/05/07 07:56:45;;;;;;;2.05;1.27;;;15.80;81.60;;;;;;6157616;23;19998;-84
2022/05/07 07:59:11;;;;;;;1.13;1.05;;;15.80;81.50;;;;;;6157125;23;20005;-84
2022/05/07 08:01:38;;;;;;;4.10;1.60;;;16.00;80.00;;;;;;6157660;23;20010;-85
2022/05/07 08:04:04;;;;;;;3.22;1.63;;;16.00;78.20;;;;;;6156086;23;20009;-85
2022/05/07 08:06:31;;;;;;;1.30;0.93;;;16.30;76.70;;;;;;6155170;23;20009;-84
2022/05/07 08:11:41;;;;;;;3.28;1.40;;;16.40;76.50;;;;;;6158570;23;20052;-84
2022/05/07 08:14:08;;;;;;;3.63;1.20;;;16.50;75.90;;;;;;6159236;23;20002;-84
2022/05/07 08:16:34;;;;;;;2.05;1.23;;;16.60;74.60;;;;;;6154519;23;20416;-86
2022/05/07 08:19:00;;;;;;;2.83;0.98;;;16.60;75.40;;;;;;6154779;23;20117;-85
2022/05/07 08:21:26;;;;;;;2.55;1.17;;;16.70;74.10;;;;;;6154744;23;20006;-86
2022/05/07 08:23:52;;;;;;;1.33;1.10;;;16.80;72.60;;;;;;6155119;23;20009;-85
2022/05/07 08:26:18;;;;;;;3.88;1.40;;;16.90;71.40;;;;;;6154983;23;20032;-86
2022/05/07 08:28:44;;;;;;;3.42;1.02;;;17.00;69.20;;;;;;6156326;23;20056;-85
2022/05/07 08:31:10;;;;;;;1.75;1.63;;;17.10;69.50;;;;;;6156683;23;20052;-85
2022/05/07 08:33:39;;;;;;;3.50;1.60;;;17.20;68.90;;;;;;6154923;23;20029;-86
2022/05/07 08:36:04;;;;;;;4.38;1.63;;;17.20;68.10;;;;;;6156685;23;20431;-84
2022/05/07 08:38:30;;;;;;;2.33;1.10;;;17.30;66.10;;;;;;6154710;23;20005;-83
2022/05/07 08:40:57;;;;;;;2.60;1.00;;;17.30;63.60;;;;;;6154781;23;20010;-84
2022/05/07 08:43:23;;;;;;;3.17;1.35;;;17.40;63.00;;;;;;6154808;23;20375;-83
2022/05/07 08:45:48;;;;;;;3.30;1.30;;;17.50;61.80;;;;;;6156484;23;20008;-85
2022/05/07 08:48:14;;;;;;;3.95;1.17;;;17.50;65.30;;;;;;6154317;23;20321;-83
2022/05/07 08:50:41;;;;;;;2.97;1.42;;;17.70;63.30;;;;;;6154390;23;20447;-83
2022/05/07 08:53:09;;;;;;;5.28;1.50;;;17.90;63.00;;;;;;6155210;23;20432;-83
2022/05/07 08:55:35;;;;;;;3.47;1.38;;;18.00;63.00;;;;;;6156996;23;20001;-86
2022/05/07 08:58:01;;;;;;;5.90;1.60;;;18.10;62.70;;;;;;6156475;23;20076;-84
2022/05/07 09:00:28;;;;;;;5.43;1.40;;;18.20;61.60;;;;;;6156800;23;20001;-85
2022/05/07 09:02:59;;;;;;;2.53;1.50;;;18.30;60.30;;;;;;6154257;23;20017;-84
2022/05/07 09:05:36;;;;;;;;;;;18.40;61.80;;;;;;6154073;23;20017;-84
2022/05/07 09:08:03;;;;;;;1.90;1.40;;;18.40;63.00;;;;;;6155006;23;19905;-85
2022/05/07 09:10:30;;;;;;;3.33;1.50;;;18.50;62.90;;;;;;6152128;23;20001;-83
2022/05/07 09:13:00;;;;;;;1.90;1.17;;;18.50;61.20;;;;;;6156105;23;20006;-86
2022/05/07 09:15:26;;;;;;;2.60;1.35;;;18.60;62.10;;;;;;6156183;23;20010;-87
2022/05/07 09:17:51;;;;;;;1.67;1.20;;;18.60;61.40;;;;;;6155057;23;20019;-84
2022/05/07 09:20:18;;;;;;;6.15;2.75;;;18.60;60.70;;;;;;6153308;23;20005;-85
2022/05/07 09:22:55;;;;;;;4.18;2.22;;;18.70;60.30;;;;;;6155653;23;20012;-87
2022/05/07 09:25:30;;;;;;;4.53;1.80;;;18.70;60.40;;;;;;6153511;23;20005;-85
2022/05/07 09:27:57;;;;;;;3.92;1.35;;;18.70;60.00;;;;;;6156631;23;20471;-85
2022/05/07 09:30:24;;;;;;;2.92;1.50;;;18.80;60.20;;;;;;6165732;23;20018;-84
2022/05/07 09:32:52;;;;;;;4.55;2.22;;;19.00;59.00;;;;;;6172261;23;20010;-87
2022/05/07 09:38:04;;;;;;;2.78;1.42;;;19.20;58.10;;;;;;6155403;23;20140;-87
2022/05/07 09:40:31;;;;;;;2.53;1.35;;;19.40;58.20;;;;;;6156616;23;20089;-84
2022/05/07 09:42:57;;;;;;;2.78;1.13;;;19.60;56.60;;;;;;6156390;23;20009;-84
2022/05/07 09:45:27;;;;;;;2.90;1.17;;;19.80;54.20;;;;;;6155136;23;20461;-83
2022/05/07 09:47:57;;;;;;;4.47;1.25;;;20.20;54.20;;;;;;6155460;23;20016;-84
2022/05/07 09:50:25;;;;;;;1.33;1.23;;;20.40;52.60;;;;;;6155459;23;19997;-85
2022/05/07 09:58:25;;;;;;;5.00;1.00;;;20.60;51.60;;;;;;6154975;23;20056;-89
2022/05/07 10:01:28;;;;;;;2.47;1.30;;;20.70;50.20;;;;;;6155103;23;20001;-88
2022/05/07 10:04:20;;;;;;;5.25;1.60;;;20.80;50.90;;;;;;6151910;23;20013;-88
2022/05/07 10:07:04;;;;;;;6.35;1.30;;;20.90;48.70;;;;;;6184758;23;20011;-87
2022/05/07 10:10:13;;;;;;;5.32;1.35;;;21.00;49.90;;;;;;6183846;23;20063;-88
2022/05/07 10:12:44;;;;;;;3.45;1.20;;;21.20;49.90;;;;;;6184795;23;20007;-87
2022/05/07 10:15:12;;;;;;;2.63;1.20;;;21.50;46.30;;;;;;6157979;23;20009;-86
2022/05/07 10:17:38;;;;;;;4.35;1.00;;;21.40;46.80;;;;;;6157351;23;20005;-88
2022/05/07 10:20:06;;;;;;;3.42;1.15;;;21.40;46.60;;;;;;6184067;23;20002;-86
2022/05/07 10:22:32;;;;;;;3.80;1.15;;;21.10;46.10;;;;;;6184402;23;20455;-86
2022/05/07 10:25:05;;;;;;;1.88;1.15;;;21.10;48.00;;;;;;6183082;23;20001;-87
2022/05/07 10:27:53;;;;;;;2.97;1.20;;;21.20;46.70;;;;;;6184645;23;20012;-87
2022/05/07 10:30:23;;;;;;;2.10;1.10;;;21.00;45.90;;;;;;6158046;23;20005;-87
2022/05/07 10:33:02;;;;;;;4.22;1.30;;;21.00;46.50;;;;;;6158113;23;20005;-87
2022/05/07 10:35:41;;;;;;;4.13;1.20;;;21.00;46.20;;;;;;6184173;23;20089;-86
2022/05/07 10:38:25;;;;;;;1.85;1.02;;;21.10;47.00;;;;;;6183912;23;20039;-85
2022/05/07 10:40:51;;;;;;;2.10;0.90;;;21.30;47.30;;;;;;6184081;23;20346;-86
2022/05/07 10:43:28;;;;;;;4.03;1.38;;;21.40;47.60;;;;;;6157752;23;20466;-85
2022/05/07 10:46:12;;;;;;;3.45;1.10;;;21.50;47.20;;;;;;6184338;23;20009;-86
2022/05/07 10:49:07;;;;;;;2.63;0.90;;;21.70;45.80;;;;;;6184014;23;20005;-86
2022/05/07 10:51:35;;;;;;;3.95;1.30;;;21.70;46.60;;;;;;6181674;23;20487;-86
2022/05/07 10:54:14;;;;;;;3.90;1.20;;;22.00;48.10;;;;;;6182940;23;20009;-86
2022/05/07 10:56:46;;;;;;;2.63;1.30;;;22.20;45.60;;;;;;6159390;23;20366;-86
2022/05/07 10:59:12;;;;;;;1.65;1.10;;;22.40;45.00;;;;;;6159357;23;20013;-86
2022/05/07 11:01:38;;;;;;;1.13;1.00;;;22.70;45.70;;;;;;6185831;23;20007;-87
2022/05/07 11:04:13;;;;;;;3.08;1.73;;;22.90;45.30;;;;;;6159523;23;20004;-86
2022/05/07 11:06:53;;;;;;;4.03;1.42;;;23.10;42.30;;;;;;6186065;23;20017;-86
2022/05/07 11:09:19;;;;;;;1.90;1.15;;;23.30;43.40;;;;;;6159444;23;20079;-86
2022/05/07 11:11:47;;;;;;;1.98;1.10;;;23.50;42.50;;;;;;6184037;23;20048;-86
2022/05/07 11:14:32;;;;;;;2.97;1.02;;;23.30;43.60;;;;;;6159641;23;20028;-86
2022/05/07 11:16:59;;;;;;;3.03;1.15;;;23.30;42.70;;;;;;6186149;23;20466;-86
2022/05/07 11:19:30;;;;;;;2.83;1.17;;;23.20;43.30;;;;;;6185635;23;19997;-86
2022/05/07 11:21:59;;;;;;;1.40;1.15;;;23.20;43.00;;;;;;6159373;23;20014;-87
2022/05/07 11:24:25;;;;;;;3.25;1.20;;;23.20;42.00;;;;;;6185745;23;20002;-85
2022/05/07 11:26:55;;;;;;;2.35;1.23;;;23.40;42.00;;;;;;6171503;23;20024;-84
2022/05/07 11:29:21;;;;;;;3.63;1.15;;;23.40;42.50;;;;;;6197246;23;20009;-85
2022/05/07 11:31:59;;;;;;;2.55;1.30;;;23.50;40.60;;;;;;6185569;23;20007;-84
2022/05/07 11:34:35;;;;;;;1.40;1.05;;;23.20;42.60;;;;;;6186509;23;20002;-84
2022/05/07 11:37:17;;;;;;;3.50;1.10;;;23.10;42.00;;;;;;6186563;23;20001;-85
2022/05/07 11:39:56;;;;;;;3.22;1.25;;;23.00;43.60;;;;;;6159243;23;20028;-83
2022/05/07 11:42:29;;;;;;;3.88;1.13;;;23.00;43.00;;;;;;6185295;23;20060;-83
2022/05/07 11:47:51;;;;;;;2.90;1.35;;;22.90;43.50;;;;;;6184523;23;20013;-84
2022/05/07 11:50:25;;;;;;;4.15;0.93;;;22.60;43.50;;;;;;6157551;23;20028;-84
2022/05/07 11:52:52;;;;;;;2.75;1.23;;;22.40;43.00;;;;;;6184023;23;20001;-85
2022/05/07 11:55:27;;;;;;;1.90;1.13;;;22.30;43.70;;;;;;6184264;23;20001;-84
2022/05/07 11:57:53;;;;;;;1.70;1.00;;;22.40;43.60;;;;;;6183343;23;20000;-83
2022/05/07 12:00:27;;;;;;;3.10;1.50;;;22.30;43.40;;;;;;6183586;23;20001;-84
2022/05/07 12:02:55;;;;;;;2.70;1.60;;;22.20;44.40;;;;;;6157454;23;20047;-84
2022/05/07 12:05:22;;;;;;;3.42;1.45;;;22.20;43.70;;;;;;6184347;23;20082;-84
2022/05/07 12:07:52;;;;;;;4.75;1.92;;;22.20;43.60;;;;;;6183549;23;20497;-85
2022/05/07 12:10:20;;;;;;;6.15;1.27;;;22.10;44.10;;;;;;6158738;23;20005;-85
2022/05/07 12:12:46;;;;;;;7.72;2.03;;;22.10;44.20;;;;;;6184317;23;19997;-85
2022/05/07 12:15:12;;;;;;;1.77;1.13;;;22.20;43.70;;;;;;6157897;23;20008;-85
2022/05/07 12:17:55;;;;;;;2.53;1.40;;;22.20;44.40;;;;;;6181671;23;20434;-86
2022/05/07 12:20:24;;;;;;;4.25;1.30;;;22.30;43.90;;;;;;6157582;23;20005;-85
2022/05/07 12:31:07;;;;;;;3.20;1.52;;;22.50;42.60;;;;;;6183553;23;20494;-87
2022/05/07 12:33:34;;;;;;;4.18;1.73;;;22.50;43.30;;;;;;6156873;23;20001;-85
2022/05/07 12:35:59;;;;;;;4.68;1.27;;;22.50;43.50;;;;;;6157046;23;20463;-86
2022/05/07 12:38:25;;;;;;;2.75;1.38;;;22.60;43.00;;;;;;6156807;23;20013;-87
2022/05/07 12:40:51;;;;;;;3.63;1.35;;;22.70;43.00;;;;;;6183315;23;20005;-87
2022/05/07 12:43:17;;;;;;;5.47;1.50;;;22.70;42.20;;;;;;6185385;23;20443;-87
2022/05/07 12:45:43;;;;;;;6.60;2.17;;;22.70;42.10;;;;;;6184787;23;20012;-87
2022/05/07 12:48:09;;;;;;;2.40;1.33;;;22.80;42.50;;;;;;6184973;23;20014;-87
2022/05/07 12:50:34;;;;;;;4.60;1.55;;;23.10;43.00;;;;;;6184869;23;20006;-87
2022/05/07 12:53:00;;;;;;;3.83;0.88;;;23.60;42.30;;;;;;6184670;23;20065;-86
2022/05/07 12:55:26;;;;;;;1.83;1.15;;;24.00;40.30;;;;;;6158645;23;20016;-86
2022/05/07 12:57:51;;;;;;;3.47;0.90;;;24.20;38.50;;;;;;6185136;23;20008;-86
2022/05/07 13:00:17;;;;;;;3.75;1.40;;;24.70;38.80;;;;;;6184815;23;20016;-86
2022/05/07 13:02:53;;;;;;;2.67;1.23;;;25.10;38.10;;;;;;6185055;23;20032;-87
2022/05/07 13:05:19;;;;;;;3.85;1.40;;;25.50;37.40;;;;;;6184972;23;20007;-86
2022/05/07 13:07:45;;;;;;;4.82;0.93;;;25.50;36.50;;;;;;6184944;23;20001;-86
2022/05/07 13:10:10;;;;;;;3.65;1.25;;;25.50;36.20;;;;;;6184865;23;20004;-87
2022/05/07 13:12:36;;;;;;;1.30;1.02;;;25.60;37.80;;;;;;6184918;23;20341;-86
2022/05/07 13:15:02;;;;;;;4.53;1.30;;;25.60;36.80;;;;;;6185432;23;20074;-86
2022/05/07 13:17:29;;;;;;;1.95;1.10;;;25.50;35.40;;;;;;6184390;23;20185;-86
2022/05/07 13:19:55;;;;;;;1.85;0.90;;;26.00;35.90;;;;;;6184477;23;20009;-86
2022/05/07 13:22:21;;;;;;;2.35;1.00;;;26.20;35.10;;;;;;6184817;23;20015;-86
2022/05/07 13:24:46;;;;;;;2.65;1.30;;;26.20;34.50;;;;;;6159210;23;20005;-86
2022/05/07 13:27:12;;;;;;;3.30;1.25;;;26.10;35.90;;;;;;6158601;23;20343;-87
2022/05/07 13:29:37;;;;;;;2.45;1.20;;;25.80;36.20;;;;;;6184691;23;20001;-88